createdAt,value
2023-01-10T00:00:26.278Z,12.62
2023-01-10T00:02:06.060Z,12.62
2023-01-10T00:03:45.783Z,12.62
2023-01-10T00:05:25.615Z,12.62
2023-01-10T00:07:05.416Z,12.62
2023-01-10T00:08:45.094Z,12.62
2023-01-10T00:10:24.836Z,12.63
2023-01-10T00:12:04.608Z,12.62
2023-01-10T00:13:44.379Z,12.62
2023-01-10T00:15:24.223Z,12.62
2023-01-10T00:17:03.922Z,12.6
2023-01-10T00:18:43.652Z,12.62
2023-01-10T00:20:23.437Z,12.61
2023-01-10T00:22:03.204Z,12.61
2023-01-10T00:23:42.962Z,12.61
2023-01-10T00:25:22.985Z,12.6
2023-01-10T00:27:02.493Z,12.6
2023-01-10T00:28:42.257Z,12.61
2023-01-10T00:30:22.014Z,12.6
2023-01-10T00:32:01.781Z,12.61
2023-01-10T00:33:41.564Z,12.6
2023-01-10T00:35:21.306Z,12.6
2023-01-10T00:37:01.072Z,12.61
2023-01-10T00:38:41.079Z,12.61
2023-01-10T00:40:20.597Z,12.59
2023-01-10T00:42:00.354Z,12.59
2023-01-10T00:43:40.189Z,12.6
2023-01-10T00:45:19.897Z,12.6
2023-01-10T00:46:59.658Z,12.6
2023-01-10T00:48:39.411Z,12.59
2023-01-10T00:50:19.171Z,12.6
2023-01-10T00:51:58.968Z,12.6
2023-01-10T00:53:38.710Z,12.6
2023-01-10T00:55:18.468Z,12.6
2023-01-10T00:56:58.240Z,12.6
2023-01-10T00:58:37.996Z,12.6
2023-01-10T01:00:17.770Z,12.59
2023-01-10T01:01:57.523Z,12.59
2023-01-10T01:03:37.295Z,12.59
2023-01-10T01:05:17.128Z,12.59
2023-01-10T01:06:56.803Z,12.59
2023-01-10T01:08:36.662Z,12.59
2023-01-10T01:10:16.422Z,12.59
2023-01-10T01:11:56.113Z,12.59
2023-01-10T01:13:35.869Z,12.59
2023-01-10T01:15:15.698Z,12.59
2023-01-10T01:16:55.405Z,12.59
2023-01-10T01:18:35.162Z,12.57
2023-01-10T01:20:14.941Z,12.59
2023-01-10T01:21:54.708Z,12.59
2023-01-10T01:23:34.458Z,12.58
2023-01-10T01:25:14.245Z,12.58
2023-01-10T01:26:53.976Z,12.58
2023-01-10T01:28:33.753Z,12.57
2023-01-10T01:30:13.516Z,12.57
2023-01-10T01:31:53.290Z,12.57
2023-01-10T01:33:33.044Z,12.57
2023-01-10T01:35:12.816Z,12.57
2023-01-10T01:36:52.561Z,12.58
2023-01-10T01:40:12.092Z,12.56
2023-01-10T01:41:51.884Z,12.58
2023-01-10T01:43:31.626Z,12.58
2023-01-10T01:45:11.388Z,12.56
2023-01-10T01:46:51.141Z,12.58
2023-01-10T01:48:30.997Z,12.57
2023-01-10T01:50:10.675Z,12.58
2023-01-10T01:51:50.438Z,12.56
2023-01-10T01:53:30.261Z,12.58
2023-01-10T01:55:09.993Z,12.57
2023-01-10T01:56:49.759Z,12.57
2023-01-10T01:58:29.492Z,12.57
2023-01-10T02:00:09.258Z,12.58
2023-01-10T02:01:49.030Z,12.55
2023-01-10T02:03:28.779Z,12.58
2023-01-10T02:05:08.666Z,12.55
2023-01-10T02:06:48.311Z,12.57
2023-01-10T02:08:28.103Z,12.56
2023-01-10T02:10:07.976Z,12.56
2023-01-10T02:11:47.625Z,12.57
2023-01-10T02:13:27.453Z,12.55
2023-01-10T02:15:07.167Z,12.56
2023-01-10T02:16:46.890Z,12.56
2023-01-10T02:18:26.658Z,12.56
2023-01-10T02:20:06.455Z,12.55
2023-01-10T02:21:46.186Z,12.55
2023-01-10T02:23:25.968Z,12.55
2023-01-10T02:25:05.747Z,12.55
2023-01-10T02:26:45.572Z,12.55
2023-01-10T02:28:25.232Z,12.55
2023-01-10T02:30:05.009Z,12.56
2023-01-10T02:31:44.789Z,12.54
2023-01-10T02:33:24.529Z,12.54
2023-01-10T02:35:04.319Z,12.56
2023-01-10T02:36:44.057Z,12.55
2023-01-10T02:38:23.826Z,12.55
2023-01-10T02:40:03.604Z,12.55
2023-01-10T02:41:43.361Z,12.55
2023-01-10T02:43:23.108Z,12.55
2023-01-10T02:45:02.889Z,12.55
2023-01-10T02:46:42.650Z,12.54
2023-01-10T02:48:22.430Z,12.55
2023-01-10T02:50:02.180Z,12.54
2023-01-10T02:51:41.943Z,12.54
2023-01-10T02:53:21.707Z,12.54
2023-01-10T02:55:01.471Z,12.55
2023-01-10T02:56:41.241Z,12.55
2023-01-10T02:58:21.002Z,12.55
2023-01-10T03:00:00.748Z,12.55
2023-01-10T03:01:40.529Z,12.55
2023-01-10T03:03:20.298Z,12.53
2023-01-10T03:05:00.108Z,12.54
2023-01-10T03:06:39.811Z,12.54
2023-01-10T03:08:19.579Z,12.54
2023-01-10T03:09:59.476Z,12.54
2023-01-10T03:11:39.119Z,12.54
2023-01-10T03:13:18.895Z,12.54
2023-01-10T03:14:58.702Z,12.54
2023-01-10T03:16:38.402Z,12.54
2023-01-10T03:18:18.180Z,12.54
2023-01-10T03:19:57.916Z,12.54
2023-01-10T03:21:37.695Z,12.53
2023-01-10T03:23:17.457Z,12.53
2023-01-10T03:24:57.244Z,12.54
2023-01-10T03:26:36.994Z,12.53
2023-01-10T03:28:16.739Z,12.53
2023-01-10T03:29:56.507Z,12.53
2023-01-10T03:31:36.277Z,12.53
2023-01-10T03:33:16.042Z,12.54
2023-01-10T03:34:55.817Z,12.53
2023-01-10T03:36:35.583Z,12.53
2023-01-10T03:38:15.337Z,12.53
2023-01-10T03:39:55.092Z,12.53
2023-01-10T03:41:34.861Z,12.52
2023-01-10T03:43:14.630Z,12.54
2023-01-10T03:44:54.400Z,12.53
2023-01-10T03:46:34.147Z,12.53
2023-01-10T03:48:13.900Z,12.53
2023-01-10T03:49:53.688Z,12.53
2023-01-10T03:51:33.478Z,12.53
2023-01-10T03:53:13.218Z,12.52
2023-01-10T03:54:52.976Z,12.52
2023-01-10T03:56:32.729Z,12.52
2023-01-10T03:58:12.487Z,12.53
2023-01-10T03:59:52.265Z,12.53
2023-01-10T04:01:32.021Z,12.53
2023-01-10T04:03:11.782Z,12.53
2023-01-10T04:04:51.561Z,12.53
2023-01-10T04:06:31.311Z,12.53
2023-01-10T04:08:11.093Z,12.53
2023-01-10T04:09:50.847Z,12.51
2023-01-10T04:11:30.613Z,12.53
2023-01-10T04:13:10.361Z,12.51
2023-01-10T04:14:50.125Z,12.53
2023-01-10T04:16:29.913Z,12.51
2023-01-10T04:18:09.663Z,12.51
2023-01-10T04:19:49.419Z,12.52
2023-01-10T04:21:29.199Z,12.52
2023-01-10T04:23:08.955Z,12.53
2023-01-10T04:24:48.719Z,12.52
2023-01-10T04:26:28.478Z,12.52
2023-01-10T04:28:08.234Z,12.52
2023-01-10T04:29:48.004Z,12.52
2023-01-10T04:31:27.787Z,12.52
2023-01-10T04:33:07.523Z,12.52
2023-01-10T04:34:47.295Z,12.52
2023-01-10T04:36:27.071Z,12.52
2023-01-10T04:38:06.829Z,12.52
2023-01-10T04:39:46.581Z,12.52
2023-01-10T04:41:26.350Z,12.52
2023-01-10T04:43:06.122Z,12.52
2023-01-10T04:44:45.917Z,12.52
2023-01-10T04:48:05.408Z,12.52
2023-01-10T04:49:45.176Z,12.52
2023-01-10T04:51:24.946Z,12.52
2023-01-10T04:53:04.697Z,12.52
2023-01-10T04:54:44.468Z,12.52
2023-01-10T04:56:24.234Z,12.52
2023-01-10T04:58:03.989Z,12.51
2023-01-10T04:59:43.775Z,12.51
2023-01-10T05:01:23.518Z,12.51
2023-01-10T05:03:03.275Z,12.51
2023-01-10T05:04:43.048Z,12.5
2023-01-10T05:06:22.808Z,12.52
2023-01-10T05:08:02.566Z,12.51
2023-01-10T05:09:42.342Z,12.51
2023-01-10T05:11:22.097Z,12.51
2023-01-10T05:13:01.856Z,12.52
2023-01-10T05:14:41.628Z,12.52
2023-01-10T05:16:21.523Z,12.52
2023-01-10T05:18:01.188Z,12.51
2023-01-10T05:19:40.922Z,12.51
2023-01-10T05:21:20.676Z,12.51
2023-01-10T05:23:00.451Z,12.51
2023-01-10T05:24:40.229Z,12.51
2023-01-10T05:26:19.965Z,12.51
2023-01-10T05:27:59.739Z,12.51
2023-01-10T05:29:39.500Z,12.51
2023-01-10T05:31:19.282Z,12.51
2023-01-10T05:32:59.055Z,12.51
2023-01-10T05:34:38.794Z,12.51
2023-01-10T05:36:18.555Z,12.51
2023-01-10T05:37:58.345Z,12.51
2023-01-10T05:39:38.074Z,12.51
2023-01-10T05:41:17.838Z,12.51
2023-01-10T05:42:57.615Z,12.51
2023-01-10T05:44:37.386Z,12.51
2023-01-10T05:46:17.128Z,12.51
2023-01-10T05:47:56.930Z,12.51
2023-01-10T05:49:36.693Z,12.51
2023-01-10T05:51:16.418Z,12.51
2023-01-10T05:52:56.190Z,12.51
2023-01-10T05:54:35.979Z,12.51
2023-01-10T05:56:15.725Z,12.51
2023-01-10T05:57:55.472Z,12.51
2023-01-10T05:59:35.266Z,12.51
2023-01-10T06:01:15.004Z,12.51
2023-01-10T06:02:54.783Z,12.51
2023-01-10T06:04:34.546Z,12.51
2023-01-10T06:06:14.301Z,12.51
2023-01-10T06:07:54.077Z,12.52
2023-01-10T06:09:33.834Z,12.5
2023-01-10T06:11:13.696Z,12.5
2023-01-10T06:12:53.347Z,12.5
2023-01-10T06:14:33.129Z,12.5
2023-01-10T06:16:12.899Z,12.5
2023-01-10T06:17:52.654Z,12.51
2023-01-10T06:19:32.413Z,12.51
2023-01-10T06:21:12.178Z,12.5
2023-01-10T06:22:51.944Z,12.5
2023-01-10T06:24:31.838Z,12.5
2023-01-10T06:26:11.476Z,12.5
2023-01-10T06:27:51.342Z,12.5
2023-01-10T06:29:31.065Z,12.51
2023-01-10T06:31:10.804Z,12.51
2023-01-10T06:32:50.522Z,12.49
2023-01-10T06:34:30.392Z,12.51
2023-01-10T06:36:10.061Z,12.5
2023-01-10T06:37:49.888Z,12.5
2023-01-10T06:39:29.637Z,12.51
2023-01-10T06:41:09.352Z,12.51
2023-01-10T06:42:49.110Z,12.51
2023-01-10T06:44:28.866Z,12.51
2023-01-10T06:46:08.685Z,12.51
2023-01-10T06:47:48.405Z,12.51
2023-01-10T06:49:28.261Z,12.5
2023-01-10T06:51:07.937Z,12.51
2023-01-10T06:52:47.747Z,12.51
2023-01-10T06:54:27.495Z,12.51
2023-01-10T06:56:07.223Z,12.51
2023-01-10T06:57:46.992Z,12.51
2023-01-10T07:01:06.648Z,12.51
2023-01-10T07:02:46.270Z,12.51
2023-01-10T07:04:26.047Z,12.52
2023-01-10T07:06:05.789Z,12.51
2023-01-10T07:07:45.561Z,12.51
2023-01-10T07:09:25.425Z,12.51
2023-01-10T07:11:05.109Z,12.51
2023-01-10T07:12:44.862Z,12.5
2023-01-10T07:14:24.764Z,12.5
2023-01-10T07:16:04.419Z,12.5
2023-01-10T07:17:44.145Z,12.51
2023-01-10T07:19:24.008Z,12.51
2023-01-10T07:21:03.704Z,12.51
2023-01-10T07:22:43.434Z,12.51
2023-01-10T07:24:23.210Z,12.51
2023-01-10T07:26:02.966Z,12.51
2023-01-10T07:27:42.735Z,12.52
2023-01-10T07:29:22.494Z,12.52
2023-01-10T07:31:02.456Z,12.52
2023-01-10T07:32:42.033Z,12.53
2023-01-10T07:34:21.792Z,12.53
2023-01-10T07:36:01.563Z,12.53
2023-01-10T07:37:41.360Z,12.52
2023-01-10T07:39:21.071Z,12.53
2023-01-10T07:41:00.891Z,12.52
2023-01-10T07:42:40.634Z,12.53
2023-01-10T07:46:00.129Z,12.54
2023-01-10T07:47:40.024Z,12.54
2023-01-10T07:49:19.652Z,12.52
2023-01-10T07:50:59.426Z,12.52
2023-01-10T07:52:39.192Z,12.51
2023-01-10T07:54:18.971Z,12.53
2023-01-10T07:55:58.759Z,12.55
2023-01-10T07:57:38.526Z,12.56
2023-01-10T07:59:18.253Z,12.53
2023-01-10T08:00:58.009Z,12.56
2023-01-10T08:02:37.977Z,12.54
2023-01-10T08:04:17.541Z,12.58
2023-01-10T08:05:57.339Z,12.59
2023-01-10T08:07:37.062Z,12.62
2023-01-10T08:09:16.913Z,12.63
2023-01-10T08:10:56.643Z,12.65
2023-01-10T08:12:36.351Z,12.64
2023-01-10T08:14:16.130Z,12.63
2023-01-10T08:15:55.887Z,12.63
2023-01-10T08:17:35.695Z,12.61
2023-01-10T08:19:15.422Z,12.61
2023-01-10T08:20:55.186Z,12.62
2023-01-10T08:24:14.709Z,12.69
2023-01-10T08:25:54.470Z,12.7
2023-01-10T08:27:34.238Z,12.7
2023-01-10T08:29:13.994Z,12.74
2023-01-10T08:30:53.801Z,12.75
2023-01-10T08:32:33.525Z,12.78
2023-01-10T08:34:13.290Z,12.74
2023-01-10T08:35:53.045Z,12.74
2023-01-10T08:39:12.567Z,12.73
2023-01-10T08:40:52.403Z,12.72
2023-01-10T08:42:32.122Z,12.77
2023-01-10T08:44:11.888Z,12.77
2023-01-10T08:45:51.663Z,12.75
2023-01-10T08:47:31.420Z,12.77
2023-01-10T08:49:11.179Z,12.82
2023-01-10T08:50:50.940Z,12.83
2023-01-10T08:55:50.211Z,13.03
2023-01-10T08:57:29.997Z,13.05
2023-01-10T08:59:09.782Z,13.02
2023-01-10T09:00:49.556Z,12.95
2023-01-10T09:02:29.274Z,12.93
2023-01-10T09:04:09.067Z,12.92
2023-01-10T09:05:48.894Z,12.92
2023-01-10T09:07:28.656Z,12.91
2023-01-10T09:09:08.468Z,12.9
2023-01-10T09:10:48.205Z,12.97
2023-01-10T09:12:27.908Z,13.03
2023-01-10T09:14:07.634Z,13.03
2023-01-10T09:15:47.386Z,12.96
2023-01-10T09:17:27.138Z,12.98
2023-01-10T09:19:06.920Z,13.09
2023-01-10T09:20:46.675Z,13.07
2023-01-10T09:22:26.441Z,13.27
2023-01-10T09:24:06.282Z,13.38
2023-01-10T09:25:46.104Z,13.61
2023-01-10T09:27:25.845Z,13.7
2023-01-10T09:29:05.600Z,13.29
2023-01-10T09:30:45.272Z,13.25
2023-01-10T09:32:25.035Z,13.27
2023-01-10T09:34:04.932Z,13.39
2023-01-10T09:35:44.596Z,13.48
2023-01-10T09:39:04.085Z,13.29
2023-01-10T09:40:43.963Z,13.28
2023-01-10T09:42:23.625Z,13.28
2023-01-10T09:45:43.170Z,13.28
2023-01-10T09:47:22.892Z,13.27
2023-01-10T09:49:02.689Z,13.24
2023-01-10T09:50:42.441Z,13.26
2023-01-10T09:54:01.994Z,13.2
2023-01-10T09:55:41.838Z,13.18
2023-01-10T09:57:21.659Z,13.19
2023-01-10T10:00:41.011Z,13.36
2023-01-10T10:02:20.779Z,13.34
2023-01-10T10:04:00.549Z,13.3
2023-01-10T10:05:40.300Z,13.24
2023-01-10T10:08:59.824Z,13.18
2023-01-10T10:10:39.614Z,13.18
2023-01-10T10:12:19.360Z,13.18
2023-01-10T10:13:59.137Z,13.2
2023-01-10T10:15:38.881Z,13.19
2023-01-10T10:17:18.662Z,13.16
2023-01-10T10:18:58.417Z,13.2
2023-01-10T10:20:38.180Z,13.34
2023-01-10T10:22:17.945Z,13.46
2023-01-10T10:23:57.714Z,13.6
2023-01-10T10:25:37.478Z,13.38
2023-01-10T10:28:56.987Z,13.3
2023-01-10T10:30:36.755Z,13.24
2023-01-10T10:32:16.528Z,13.27
2023-01-10T10:35:36.069Z,13.26
2023-01-10T10:37:15.818Z,13.23
2023-01-10T10:38:55.571Z,13.2
2023-01-10T10:40:35.339Z,13.17
2023-01-10T10:42:15.106Z,13.19
2023-01-10T10:43:54.951Z,13.3
2023-01-10T10:45:34.630Z,13.21
2023-01-10T10:47:14.410Z,13.17
2023-01-10T10:48:54.205Z,13.16
2023-01-10T10:50:33.924Z,13.13
2023-01-10T10:52:13.707Z,13.1
2023-01-10T10:55:33.331Z,13.12
2023-01-10T10:57:13.087Z,13.12
2023-01-10T10:58:52.751Z,13.14
2023-01-10T11:02:12.280Z,13.07
2023-01-10T11:03:52.046Z,13.07
2023-01-10T11:05:31.797Z,13.12
2023-01-10T11:07:11.566Z,13.16
2023-01-10T11:08:51.343Z,13.18
2023-01-10T11:10:31.091Z,13.17
2023-01-10T11:12:10.876Z,13.2
2023-01-10T11:15:30.393Z,13.21
2023-01-10T11:17:10.157Z,13.22
2023-01-10T11:18:49.933Z,13.25
2023-01-10T11:20:29.677Z,13.24
2023-01-10T11:22:09.432Z,13.27
2023-01-10T11:23:49.212Z,13.28
2023-01-10T11:25:28.983Z,13.29
2023-01-10T11:27:08.740Z,13.56
2023-01-10T11:28:48.496Z,14.48
2023-01-10T11:30:28.268Z,14.62
2023-01-10T11:32:08.030Z,14.7
2023-01-10T11:33:47.812Z,14.75
2023-01-10T11:35:27.564Z,14.67
2023-01-10T11:37:07.334Z,14.79
2023-01-10T11:38:47.086Z,14.8
2023-01-10T11:40:26.864Z,14.6
2023-01-10T11:42:06.632Z,14.71
2023-01-10T11:43:46.399Z,14.56
2023-01-10T11:45:26.181Z,14.88
2023-01-10T11:47:05.987Z,14.82
2023-01-10T11:48:45.805Z,14.78
2023-01-10T11:50:25.452Z,14.54
2023-01-10T11:52:05.237Z,14.73
2023-01-10T11:53:45.002Z,14.7
2023-01-10T11:58:44.290Z,14.68
2023-01-10T12:00:24.044Z,14.66
2023-01-10T12:02:03.814Z,14.64
2023-01-10T12:03:43.591Z,14.66
2023-01-10T12:05:23.350Z,14.62
2023-01-10T12:07:03.114Z,14.65
2023-01-10T12:08:42.887Z,14.64
2023-01-10T12:10:22.659Z,14.65
2023-01-10T12:15:21.936Z,14.77
2023-01-10T12:17:01.721Z,14.63
2023-01-10T12:18:41.484Z,14.66
2023-01-10T12:22:01.029Z,14.73
2023-01-10T12:23:40.783Z,14.75
2023-01-10T12:25:20.540Z,14.63
2023-01-10T12:27:00.323Z,14.73
2023-01-10T12:28:40.077Z,14.67
2023-01-10T12:30:19.845Z,14.74
2023-01-10T12:31:59.593Z,14.8
2023-01-10T12:33:39.375Z,14.66
2023-01-10T12:35:19.132Z,14.76
2023-01-10T12:38:38.645Z,14.73
2023-01-10T12:40:18.429Z,14.62
2023-01-10T12:41:58.194Z,14.66
2023-01-10T12:46:57.504Z,14.71
2023-01-10T12:50:17.024Z,14.67
2023-01-10T12:51:56.788Z,14.77
2023-01-10T12:53:36.561Z,14.77
2023-01-10T12:55:16.321Z,14.67
2023-01-10T12:56:56.086Z,14.7
2023-01-10T12:58:35.854Z,14.71
2023-01-10T13:00:15.627Z,14.63
2023-01-10T13:01:55.378Z,14.65
2023-01-10T13:05:14.914Z,14.64
2023-01-10T13:06:54.691Z,14.09
2023-01-10T13:08:34.445Z,13.4
2023-01-10T13:10:14.199Z,13.49
2023-01-10T13:11:53.992Z,13.33
2023-01-10T13:15:13.505Z,13.22
2023-01-10T13:16:53.263Z,13.21
2023-01-10T13:18:33.065Z,13.22
2023-01-10T13:20:12.804Z,13.27
2023-01-10T13:21:52.553Z,13.3
2023-01-10T13:23:32.336Z,13.27
2023-01-10T13:25:12.081Z,13.26
2023-01-10T13:26:51.855Z,13.26
2023-01-10T13:28:31.615Z,13.26
2023-01-10T13:30:11.376Z,13.22
2023-01-10T13:31:51.258Z,13.21
2023-01-10T13:35:10.661Z,13.18
2023-01-10T13:36:50.413Z,13.17
2023-01-10T13:38:30.189Z,13.13
2023-01-10T13:40:09.974Z,13.13
2023-01-10T13:41:49.739Z,13.11
2023-01-10T13:43:29.596Z,13.11
2023-01-10T13:45:09.318Z,13.11
2023-01-10T13:46:49.235Z,13.09
2023-01-10T13:48:28.772Z,13.11
2023-01-10T13:50:08.542Z,13.11
2023-01-10T13:51:48.315Z,13.13
2023-01-10T13:53:28.083Z,13.14
2023-01-10T13:55:07.840Z,13.12
2023-01-10T13:56:47.588Z,13.11
2023-01-10T13:58:27.360Z,13.12
2023-01-10T14:00:07.108Z,13.12
2023-01-10T14:01:46.885Z,13.1
2023-01-10T14:03:26.679Z,13.13
2023-01-10T14:05:06.405Z,13.09
2023-01-10T14:06:46.171Z,13.09
2023-01-10T14:08:25.957Z,13.12
2023-01-10T14:10:05.722Z,13.11
2023-01-10T14:11:45.534Z,13.15
2023-01-10T14:15:05.006Z,13.15
2023-01-10T14:16:44.760Z,13.17
2023-01-10T14:18:24.520Z,13.17
2023-01-10T14:20:04.352Z,13.17
2023-01-10T14:21:44.125Z,13.18
2023-01-10T14:23:23.828Z,13.18
2023-01-10T14:25:03.598Z,13.19
2023-01-10T14:28:23.106Z,13.17
2023-01-10T14:31:42.643Z,13.14
2023-01-10T14:35:02.201Z,13.07
2023-01-10T14:36:41.927Z,13.11
2023-01-10T14:38:21.705Z,13.11
2023-01-10T14:41:41.223Z,13.03
2023-01-10T14:45:00.737Z,13.03
2023-01-10T14:46:40.523Z,13.03
2023-01-10T14:48:20.284Z,13
2023-01-10T14:50:00.030Z,12.98
2023-01-10T14:51:39.807Z,13
2023-01-10T14:54:59.458Z,12.99
2023-01-10T14:56:39.108Z,12.97
2023-01-10T14:58:18.860Z,12.99
2023-01-10T14:59:58.623Z,12.98
2023-01-10T15:01:38.397Z,12.98
2023-01-10T15:04:57.919Z,12.97
2023-01-10T15:06:37.693Z,12.97
2023-01-10T15:08:17.438Z,12.96
2023-01-10T15:09:57.298Z,12.96
2023-01-10T15:11:37.094Z,12.96
2023-01-10T15:16:36.377Z,12.95
2023-01-10T15:18:16.080Z,12.94
2023-01-10T15:19:55.885Z,12.94
2023-01-10T15:21:35.565Z,12.94
2023-01-10T15:24:55.084Z,12.93
2023-01-10T15:26:34.852Z,12.93
2023-01-10T15:28:14.603Z,12.93
2023-01-10T15:31:34.131Z,12.92
2023-01-10T15:34:53.871Z,12.92
2023-01-10T15:36:33.421Z,12.92
2023-01-10T15:38:13.189Z,12.92
2023-01-10T15:39:52.945Z,12.92
2023-01-10T15:41:32.729Z,12.91
2023-01-10T15:44:52.256Z,12.91
2023-01-10T15:48:11.775Z,12.9
2023-01-10T15:51:31.299Z,12.9
2023-01-10T15:54:50.826Z,12.9
2023-01-10T15:58:10.360Z,12.91
2023-01-10T15:59:50.138Z,12.9
2023-01-10T16:01:29.880Z,12.9
2023-01-10T16:04:49.415Z,12.9
2023-01-10T16:06:29.181Z,12.9
2023-01-10T16:08:08.951Z,12.9
2023-01-10T16:09:48.705Z,12.89
2023-01-10T16:11:28.461Z,12.89
2023-01-10T16:14:48.005Z,12.89
2023-01-10T16:16:27.815Z,12.89
2023-01-10T16:18:07.585Z,12.87
2023-01-10T16:19:47.359Z,12.87
2023-01-10T16:21:27.041Z,12.89
2023-01-10T16:24:46.579Z,12.87
2023-01-10T16:26:26.329Z,12.87
2023-01-10T16:28:06.119Z,12.89
2023-01-10T16:29:45.864Z,12.89
2023-01-10T16:31:25.635Z,12.88
2023-01-10T16:34:45.164Z,12.88
2023-01-10T16:36:24.922Z,12.88
2023-01-10T16:38:04.697Z,12.88
2023-01-10T16:39:44.537Z,12.88
2023-01-10T16:41:24.220Z,12.88
2023-01-10T16:43:04.076Z,12.88
2023-01-10T16:44:43.754Z,12.88
2023-01-10T16:46:23.520Z,12.88
2023-01-10T16:49:43.036Z,12.87
2023-01-10T16:51:22.809Z,12.87
2023-01-10T16:54:42.333Z,12.87
2023-01-10T16:58:01.864Z,12.87
2023-01-10T16:59:41.618Z,12.87
2023-01-10T17:01:21.372Z,12.87
2023-01-10T17:04:40.915Z,12.87
2023-01-10T17:06:20.676Z,12.87
2023-01-10T17:08:00.430Z,12.87
2023-01-10T17:11:19.975Z,12.86
2023-01-10T17:14:39.493Z,12.86
2023-01-10T17:16:19.261Z,12.86
2023-01-10T17:17:59.016Z,12.86
2023-01-10T17:21:18.560Z,12.86
2023-01-10T17:24:38.075Z,12.86
2023-01-10T17:27:57.597Z,12.86
2023-01-10T17:29:37.375Z,12.86
2023-01-10T17:31:17.146Z,12.85
2023-01-10T17:34:36.657Z,12.85
2023-01-10T17:36:16.410Z,12.85
2023-01-10T17:37:56.193Z,12.85
2023-01-10T17:39:35.944Z,12.85
2023-01-10T17:41:15.713Z,12.85
2023-01-10T17:44:35.249Z,12.85
2023-01-10T17:46:15.010Z,12.85
2023-01-10T17:47:54.773Z,12.85
2023-01-10T17:49:34.529Z,12.84
2023-01-10T17:54:33.815Z,12.84
2023-01-10T17:56:13.581Z,12.84
2023-01-10T17:57:53.350Z,12.85
2023-01-10T17:59:33.119Z,12.85
2023-01-10T18:01:12.905Z,12.83
2023-01-10T18:06:12.176Z,12.83
2023-01-10T18:07:51.938Z,12.83
2023-01-10T18:09:31.701Z,12.84
2023-01-10T18:11:11.471Z,12.84
2023-01-10T18:14:30.995Z,12.84
2023-01-10T18:16:10.755Z,12.84
2023-01-10T18:17:50.515Z,12.84
2023-01-10T18:19:30.286Z,12.84
2023-01-10T18:21:10.031Z,12.84
2023-01-10T18:24:29.577Z,12.82
2023-01-10T18:26:09.325Z,12.84
2023-01-10T18:27:49.100Z,12.84
2023-01-10T18:29:28.850Z,12.82
2023-01-10T18:31:08.644Z,12.83
2023-01-10T18:32:48.579Z,12.83
2023-01-10T18:34:28.149Z,12.84
2023-01-10T18:36:07.916Z,12.82
2023-01-10T18:37:47.693Z,12.83
2023-01-10T18:39:27.447Z,12.84
2023-01-10T18:41:07.205Z,12.82
2023-01-10T18:42:46.981Z,12.84
2023-01-10T18:44:26.761Z,12.84
2023-01-10T18:46:06.509Z,12.82
2023-01-10T18:47:46.264Z,12.82
2023-01-10T18:49:26.052Z,12.82
2023-01-10T18:51:05.797Z,12.84
2023-01-10T18:54:25.314Z,12.83
2023-01-10T18:56:05.091Z,12.83
2023-01-10T18:57:44.863Z,12.83
2023-01-10T18:59:24.617Z,12.83
2023-01-10T19:01:04.388Z,12.83
2023-01-10T19:02:44.148Z,12.82
2023-01-10T19:04:23.905Z,12.82
2023-01-10T19:06:03.664Z,12.82
2023-01-10T19:07:43.449Z,12.82
2023-01-10T19:09:23.204Z,12.81
2023-01-10T19:11:02.955Z,12.82
2023-01-10T19:14:22.497Z,12.82
2023-01-10T19:16:02.251Z,12.82
2023-01-10T19:17:42.011Z,12.81
2023-01-10T19:19:21.781Z,12.82
2023-01-10T19:21:01.537Z,12.82
2023-01-10T19:22:41.315Z,12.82
2023-01-10T19:24:21.072Z,12.82
2023-01-10T19:26:00.833Z,12.81
2023-01-10T19:27:40.603Z,12.81
2023-01-10T19:29:20.366Z,12.82
2023-01-10T19:31:00.145Z,12.82
2023-01-10T19:32:39.910Z,12.8
2023-01-10T19:34:19.661Z,12.82
2023-01-10T19:35:59.433Z,12.81
2023-01-10T19:37:39.196Z,12.81
2023-01-10T19:39:18.946Z,12.81
2023-01-10T19:40:58.716Z,12.81
2023-01-10T19:44:18.238Z,12.81
2023-01-10T19:45:58.006Z,12.79
2023-01-10T19:47:37.772Z,12.8
2023-01-10T19:49:17.535Z,12.8
2023-01-10T19:50:57.316Z,12.8
2023-01-10T19:54:16.829Z,12.8
2023-01-10T19:57:36.355Z,12.8
2023-01-10T19:59:16.113Z,12.8
2023-01-10T20:00:55.876Z,12.81
2023-01-10T20:04:15.415Z,12.8
2023-01-10T20:05:55.176Z,12.8
2023-01-10T20:07:34.943Z,12.8
2023-01-10T20:09:14.686Z,12.79
2023-01-10T20:10:54.467Z,12.79
2023-01-10T20:14:13.981Z,12.81
2023-01-10T20:15:53.761Z,12.8
2023-01-10T20:17:33.520Z,12.8
2023-01-10T20:19:13.288Z,12.79
2023-01-10T20:20:53.056Z,12.79
2023-01-10T20:24:12.564Z,12.8
2023-01-10T20:27:32.107Z,12.78
2023-01-10T20:29:11.875Z,12.8
2023-01-10T20:30:51.640Z,12.8
2023-01-10T20:34:11.148Z,12.8
2023-01-10T20:37:30.684Z,12.78
2023-01-10T20:39:10.451Z,12.8
2023-01-10T20:40:50.210Z,12.79
2023-01-10T20:44:09.743Z,12.79
2023-01-10T20:45:49.796Z,12.79
2023-01-10T20:47:29.272Z,12.78
2023-01-10T20:49:09.029Z,12.79
2023-01-10T20:50:48.796Z,12.78
2023-01-10T20:54:08.323Z,12.79
2023-01-10T20:55:48.075Z,12.78
2023-01-10T20:57:27.852Z,12.79
2023-01-10T20:59:07.604Z,12.79
2023-01-10T21:00:47.369Z,12.79
2023-01-10T21:04:06.898Z,12.79
2023-01-10T21:05:46.660Z,12.79
2023-01-10T21:07:26.420Z,12.79
2023-01-10T21:09:06.198Z,12.79
2023-01-10T21:10:45.953Z,12.79
2023-01-10T21:14:05.494Z,12.78
2023-01-10T21:15:45.250Z,12.78
2023-01-10T21:17:24.998Z,12.78
2023-01-10T21:19:04.780Z,12.78
2023-01-10T21:20:44.533Z,12.78
2023-01-10T21:24:04.072Z,12.77
2023-01-10T21:27:23.591Z,12.78
2023-01-10T21:29:03.374Z,12.78
2023-01-10T21:30:43.127Z,12.78
2023-01-10T21:32:22.882Z,12.78
2023-01-10T21:34:02.734Z,12.78
2023-01-10T21:35:42.426Z,12.78
2023-01-10T21:37:22.173Z,12.78
2023-01-10T21:39:01.974Z,12.78
2023-01-10T21:40:41.714Z,12.77
2023-01-10T21:44:01.237Z,12.77
2023-01-10T21:45:40.994Z,12.77
2023-01-10T21:47:20.751Z,12.77
2023-01-10T21:49:00.536Z,12.77
2023-01-10T21:50:40.275Z,12.77
2023-01-10T21:53:59.812Z,12.77
2023-01-10T21:55:39.589Z,12.77
2023-01-10T21:57:19.351Z,12.77
2023-01-10T21:58:59.104Z,12.77
2023-01-10T22:00:38.877Z,12.77
2023-01-10T22:03:58.396Z,12.77
2023-01-10T22:07:17.918Z,12.76
2023-01-10T22:08:57.682Z,12.77
2023-01-10T22:10:37.455Z,12.77
2023-01-10T22:15:36.742Z,12.76
2023-01-10T22:17:16.514Z,12.76
2023-01-10T22:18:56.385Z,12.77
2023-01-10T22:23:55.564Z,12.76
2023-01-10T22:25:35.329Z,12.76
2023-01-10T22:27:15.098Z,12.76
2023-01-10T22:30:34.618Z,12.76
2023-01-10T22:32:14.423Z,12.76
2023-01-10T22:33:54.150Z,12.76
2023-01-10T22:35:33.917Z,12.76
2023-01-10T22:37:13.681Z,12.76
2023-01-10T22:38:53.440Z,12.76
2023-01-10T22:40:33.199Z,12.76
2023-01-10T22:43:52.733Z,12.76
2023-01-10T22:45:32.487Z,12.76
2023-01-10T22:47:12.257Z,12.76
2023-01-10T22:48:52.072Z,12.76
2023-01-10T22:50:31.785Z,12.76
2023-01-10T22:53:51.317Z,12.76
2023-01-10T22:55:31.070Z,12.76
2023-01-10T22:57:10.840Z,12.75
2023-01-10T22:58:50.613Z,12.75
2023-01-10T23:03:49.938Z,12.75
2023-01-10T23:05:29.665Z,12.75
2023-01-10T23:07:09.420Z,12.75
2023-01-10T23:08:49.205Z,12.75
2023-01-10T23:10:28.957Z,12.76
2023-01-10T23:13:48.497Z,12.75
2023-01-10T23:15:28.249Z,12.75
2023-01-10T23:17:08.010Z,12.76
2023-01-10T23:18:47.771Z,12.75
2023-01-10T23:20:27.532Z,12.75
2023-01-10T23:23:47.057Z,12.75
2023-01-10T23:25:26.821Z,12.75
2023-01-10T23:27:06.612Z,12.75
2023-01-10T23:30:26.115Z,12.75
2023-01-10T23:33:45.652Z,12.75
2023-01-10T23:35:25.405Z,12.75
2023-01-10T23:37:05.173Z,12.74
2023-01-10T23:38:44.932Z,12.74
2023-01-10T23:40:24.707Z,12.75
2023-01-10T23:43:44.233Z,12.75
2023-01-10T23:45:23.993Z,12.75
2023-01-10T23:47:03.756Z,12.75
2023-01-10T23:48:43.577Z,12.75
2023-01-10T23:50:23.289Z,12.74
2023-01-10T23:53:42.811Z,12.75
2023-01-10T23:55:22.581Z,12.74
2023-01-10T23:58:42.108Z,12.74
